Washington, California
Current Conditions -  °F | °C
As of 8:00 PM on Sunday 21 Dec 2014 (Local Time) from KBLU Reporting Station
Broken Clouds Broken Clouds  
Wind Chill: 42°   Ceiling: 900
Heat Index: 46°   Visibility: 10mi
Dew Point: 42°   Wind: 7mph
Humidity: 86%   Direction: 340°NNW
Pressure: 30.34"   Gusts: NA
Location:  39.36°N, 120.8°W
Report Text: KBLU 220400Z AUTO 34006KT 10SM BKN009 08/06 A3034 RMK AO2 CIG 007V011 T00780056
Loading
Personal Weather Stations






























Interactive Weather Map New forecast layout! Learn more

10-Day Weather Forecast

Advertisements
Track Severe Weather on mobile